createdAt,value
2022-08-20T00:01:01.600Z,99862.06
2022-08-20T00:04:06.429Z,99871.34
2022-08-20T00:07:09.427Z,99867.31
2022-08-20T00:10:12.369Z,99871.84
2022-08-20T00:13:24.273Z,99880.34
2022-08-20T00:16:29.673Z,99887.28
2022-08-20T00:19:32.210Z,99891.47
2022-08-20T00:22:35.267Z,99892.44
2022-08-20T00:25:38.720Z,99888.56
2022-08-20T00:28:41.548Z,99895.06
2022-08-20T00:31:44.156Z,99896.47
2022-08-20T00:34:47.072Z,99905.75
2022-08-20T00:37:50.135Z,99915.19
2022-08-20T00:40:56.332Z,99906.97
2022-08-20T00:44:07.344Z,99891.19
2022-08-20T00:47:10.172Z,99900.38
2022-08-20T00:50:17.398Z,99887.19
2022-08-20T00:53:22.105Z,99894.53
2022-08-20T00:56:24.903Z,99887.59
2022-08-20T00:59:31.024Z,99882.91
2022-08-20T01:02:34.916Z,99888.47
2022-08-20T01:05:40.835Z,99881.75
2022-08-20T01:08:43.349Z,99862.22
2022-08-20T01:11:46.712Z,99857.81
2022-08-20T01:14:49.335Z,99841.72
2022-08-20T01:17:58.536Z,99822.00
2022-08-20T01:21:05.610Z,99817.69
2022-08-20T01:24:22.217Z,99812.00
2022-08-20T01:27:24.957Z,99802.16
2022-08-20T01:30:29.027Z,99799.75
2022-08-20T01:33:32.218Z,99783.25
2022-08-20T01:36:46.291Z,99783.12
2022-08-20T01:39:49.202Z,99785.75
2022-08-20T01:42:58.521Z,99779.53
2022-08-20T01:46:02.378Z,99780.37
2022-08-20T01:49:23.240Z,99787.13
2022-08-20T01:52:51.803Z,99811.63
2022-08-20T01:55:54.749Z,99808.91
2022-08-20T01:58:59.719Z,99790.72
2022-08-20T02:02:03.263Z,99786.56
2022-08-20T02:05:06.536Z,99792.78
2022-08-20T02:08:09.106Z,99799.59
2022-08-20T02:11:12.996Z,99800.12
2022-08-20T02:14:16.616Z,99813.31
2022-08-20T02:17:23.210Z,99810.69
2022-08-20T02:20:30.292Z,99810.66
2022-08-20T02:23:33.612Z,99809.72
2022-08-20T02:26:37.836Z,99805.72
2022-08-20T02:29:41.123Z,99812.22
2022-08-20T02:32:43.747Z,99823.34
2022-08-20T02:35:49.986Z,99828.72
2022-08-20T02:38:52.509Z,99823.47
2022-08-20T02:41:55.344Z,99835.09
2022-08-20T02:44:58.652Z,99838.69
2022-08-20T02:48:01.801Z,99844.34
2022-08-20T02:51:06.563Z,99848.53
2022-08-20T02:54:09.359Z,99849.09
2022-08-20T02:57:16.956Z,99859.22
2022-08-20T03:00:21.596Z,99855.75
2022-08-20T03:03:25.059Z,99852.72
2022-08-20T03:06:28.220Z,99851.84
2022-08-20T03:09:30.904Z,99856.16
2022-08-20T03:12:34.265Z,99854.13
2022-08-20T03:15:36.890Z,99860.78
2022-08-20T03:18:43.888Z,99883.38
2022-08-20T03:21:46.797Z,99901.25
2022-08-20T03:24:49.584Z,99915.69
2022-08-20T03:27:54.319Z,99901.78
2022-08-20T03:30:59.405Z,99892.78
2022-08-20T03:34:01.908Z,99881.00
2022-08-20T03:37:05.077Z,99888.22
2022-08-20T03:40:15.543Z,99932.87
2022-08-20T03:43:18.795Z,99928.56
2022-08-20T03:46:23.549Z,99890.28
2022-08-20T03:49:27.001Z,99881.28
2022-08-20T03:52:29.512Z,99902.91
2022-08-20T03:55:32.888Z,99914.03
2022-08-20T03:58:36.652Z,99910.69
2022-08-20T04:01:45.855Z,99910.69
2022-08-20T04:04:49.489Z,99909.31
2022-08-20T04:07:52.534Z,99893.87
2022-08-20T04:10:57.719Z,99897.91
2022-08-20T04:14:00.223Z,99908.19
2022-08-20T04:17:09.963Z,99901.37
2022-08-20T04:20:18.435Z,99903.72
2022-08-20T04:23:22.042Z,99911.22
2022-08-20T04:26:24.752Z,99908.03
2022-08-20T04:29:32.438Z,99897.56
2022-08-20T04:32:36.942Z,99885.63
2022-08-20T04:35:41.087Z,99868.38
2022-08-20T04:38:47.866Z,99862.16
2022-08-20T04:41:53.077Z,99867.47
2022-08-20T04:44:55.544Z,99876.78
2022-08-20T04:48:05.604Z,99896.59
2022-08-20T04:51:09.061Z,99894.66
2022-08-20T04:54:14.270Z,99883.41
2022-08-20T04:57:16.809Z,99887.72
2022-08-20T05:00:20.233Z,99894.75
2022-08-20T05:03:23.847Z,99893.38
2022-08-20T05:06:31.020Z,99891.41
2022-08-20T05:09:43.663Z,99886.00
2022-08-20T05:12:56.938Z,99897.50
2022-08-20T05:16:01.990Z,99907.50
2022-08-20T05:19:06.865Z,99905.25
2022-08-20T05:22:10.087Z,99903.13
2022-08-20T05:25:12.980Z,99895.06
2022-08-20T05:28:21.821Z,99896.97
2022-08-20T05:31:24.667Z,99894.50
2022-08-20T05:34:35.284Z,99894.34
2022-08-20T05:37:41.208Z,99886.59
2022-08-20T05:40:45.311Z,99880.44
2022-08-20T05:43:48.156Z,99884.06
2022-08-20T05:46:54.153Z,99880.47
2022-08-20T05:49:56.944Z,99881.41
2022-08-20T05:53:01.454Z,99877.19
2022-08-20T05:56:04.454Z,99883.31
2022-08-20T05:59:08.973Z,99885.19
2022-08-20T06:02:30.670Z,99878.41
2022-08-20T06:05:34.514Z,99882.88
2022-08-20T06:08:37.669Z,99884.97
2022-08-20T06:11:40.541Z,99888.53
2022-08-20T06:14:43.184Z,99880.28
2022-08-20T06:17:45.999Z,99877.56
2022-08-20T06:21:00.572Z,99870.56
2022-08-20T06:24:03.621Z,99886.00
2022-08-20T06:27:06.960Z,99889.81
2022-08-20T06:30:12.696Z,99896.06
2022-08-20T06:33:15.346Z,99899.09
2022-08-20T06:36:19.151Z,99897.84
2022-08-20T06:39:21.779Z,99897.72
2022-08-20T06:42:24.545Z,99895.25
2022-08-20T06:45:31.521Z,99894.94
2022-08-20T06:48:34.290Z,99902.37
2022-08-20T06:51:37.467Z,99911.66
2022-08-20T06:54:44.398Z,99908.41
2022-08-20T06:57:48.344Z,99919.06
2022-08-20T07:00:51.283Z,99924.75
2022-08-20T07:03:55.060Z,99923.94
2022-08-20T07:06:58.674Z,99935.06
2022-08-20T07:10:09.125Z,99942.72
2022-08-20T07:13:14.473Z,99946.69
2022-08-20T07:16:17.097Z,99948.84
2022-08-20T07:19:20.304Z,99965.56
2022-08-20T07:22:24.803Z,99970.56
2022-08-20T07:25:28.959Z,99969.44
2022-08-20T07:28:34.474Z,99948.88
2022-08-20T07:31:57.141Z,99952.38
2022-08-20T07:35:00.316Z,99954.38
2022-08-20T07:38:03.150Z,99957.69
2022-08-20T07:41:09.985Z,99966.62
2022-08-20T07:44:12.988Z,99967.44
2022-08-20T07:47:19.086Z,99973.59
2022-08-20T07:50:25.649Z,99986.78
2022-08-20T07:53:30.237Z,100012.25
2022-08-20T07:56:36.586Z,100032.75
2022-08-20T07:59:39.173Z,100051.22
2022-08-20T08:02:42.384Z,100073.84
2022-08-20T08:05:48.723Z,100081.37
2022-08-20T08:08:52.148Z,100103.06
2022-08-20T08:11:57.803Z,100101.28
2022-08-20T08:15:00.459Z,100106.19
2022-08-20T08:18:11.107Z,100121.47
2022-08-20T08:21:13.644Z,100119.69
2022-08-20T08:24:21.704Z,100131.00
2022-08-20T08:27:26.020Z,100142.31
2022-08-20T08:30:28.794Z,100152.50
2022-08-20T08:33:32.423Z,100148.84
2022-08-20T08:36:35.248Z,100135.50
2022-08-20T08:39:37.873Z,100102.25
2022-08-20T08:42:45.845Z,100101.94
2022-08-20T08:45:58.373Z,100103.28
2022-08-20T08:49:05.069Z,100097.81
2022-08-20T08:52:15.044Z,100118.19
2022-08-20T08:55:21.831Z,100108.72
2022-08-20T08:58:24.382Z,100100.72
2022-08-20T09:01:54.752Z,100086.47
2022-08-20T09:04:56.520Z,100068.63
2022-08-20T09:08:02.977Z,100070.09
2022-08-20T09:11:08.264Z,100061.25
2022-08-20T09:14:11.175Z,100056.69
2022-08-20T09:17:14.648Z,100066.25
2022-08-20T09:20:18.392Z,100077.28
2022-08-20T09:23:20.879Z,100095.69
2022-08-20T09:26:23.643Z,100127.78
2022-08-20T09:29:32.968Z,100171.31
2022-08-20T09:32:36.259Z,100203.22
2022-08-20T09:35:40.341Z,100200.06
2022-08-20T09:38:43.194Z,100164.88
2022-08-20T09:41:46.056Z,100147.25
2022-08-20T09:44:48.851Z,100142.03
2022-08-20T09:47:55.385Z,100129.06
2022-08-20T09:51:00.663Z,100142.59
2022-08-20T09:54:03.311Z,100128.28
2022-08-20T09:57:09.274Z,100099.84
2022-08-20T10:00:12.677Z,100070.50
2022-08-20T10:03:16.798Z,100050.81
2022-08-20T10:06:20.701Z,100020.09
2022-08-20T10:09:23.541Z,100002.75
2022-08-20T10:12:26.537Z,100002.34
2022-08-20T10:15:30.008Z,100001.59
2022-08-20T10:18:33.622Z,99983.91
2022-08-20T10:21:38.811Z,99979.28
2022-08-20T10:24:42.749Z,99966.19
2022-08-20T10:27:45.704Z,99970.72
2022-08-20T10:30:48.425Z,99973.09
2022-08-20T10:33:50.929Z,99984.44
2022-08-20T10:36:53.784Z,99985.16
2022-08-20T10:39:57.035Z,99986.78
2022-08-20T10:42:59.879Z,99995.28
2022-08-20T10:46:04.804Z,100021.94
2022-08-20T10:49:07.604Z,100025.34
2022-08-20T10:52:10.337Z,100034.38
2022-08-20T10:55:13.251Z,100032.38
2022-08-20T10:58:15.867Z,100033.16
2022-08-20T11:01:31.274Z,100048.47
2022-08-20T11:04:36.527Z,100054.25
2022-08-20T11:07:50.848Z,100060.44
2022-08-20T11:11:03.104Z,100057.28
2022-08-20T11:14:05.986Z,100057.50
2022-08-20T11:17:08.877Z,100076.62
2022-08-20T11:20:15.717Z,100074.31
2022-08-20T11:23:18.356Z,100069.31
2022-08-20T11:26:25.463Z,100068.50
2022-08-20T11:29:31.024Z,100059.34
2022-08-20T11:32:37.027Z,100060.09
2022-08-20T11:35:49.079Z,100064.00
2022-08-20T11:38:53.143Z,100065.44
2022-08-20T11:41:55.783Z,100062.59
2022-08-20T11:44:58.605Z,100053.50
2022-08-20T11:48:01.123Z,100051.59
2022-08-20T11:51:05.400Z,100046.94
2022-08-20T11:54:08.092Z,100038.38
2022-08-20T11:57:11.410Z,100039.00
2022-08-20T12:00:18.263Z,100045.34
2022-08-20T12:03:21.220Z,100039.69
2022-08-20T12:06:23.859Z,100037.03
2022-08-20T12:09:26.710Z,100028.78
2022-08-20T12:12:29.393Z,100023.19
2022-08-20T12:15:33.679Z,100019.84
2022-08-20T12:18:36.287Z,100014.41
2022-08-20T12:21:39.272Z,100011.62
2022-08-20T12:24:41.845Z,99999.22
2022-08-20T12:27:46.373Z,99992.06
2022-08-20T12:30:49.028Z,99977.84
2022-08-20T12:33:51.855Z,99975.91
2022-08-20T12:37:05.998Z,99970.09
2022-08-20T12:40:13.142Z,99957.84
2022-08-20T12:43:15.790Z,99953.34
2022-08-20T12:46:19.021Z,99945.41
2022-08-20T12:49:21.531Z,99937.44
2022-08-20T12:52:25.656Z,99931.63
2022-08-20T12:55:28.789Z,99933.44
2022-08-20T12:58:31.600Z,99930.75
2022-08-20T13:01:34.140Z,99922.84
2022-08-20T13:04:37.055Z,99931.00
2022-08-20T13:07:40.290Z,99927.84
2022-08-20T13:10:46.615Z,99919.53
2022-08-20T13:13:49.149Z,99912.75
2022-08-20T13:17:00.889Z,99913.56
2022-08-20T13:20:09.731Z,99920.88
2022-08-20T13:23:12.806Z,99916.06
2022-08-20T13:26:15.432Z,99912.41
2022-08-20T13:29:19.881Z,99909.59
2022-08-20T13:32:23.380Z,99906.44
2022-08-20T13:35:26.554Z,99911.25
2022-08-20T13:38:29.184Z,99900.47
2022-08-20T13:41:32.799Z,99901.31
2022-08-20T13:44:36.117Z,99906.28
2022-08-20T13:47:40.947Z,99908.94
2022-08-20T13:50:47.256Z,99904.28
2022-08-20T13:53:50.423Z,99913.91
2022-08-20T13:56:53.717Z,99916.06
2022-08-20T13:59:58.052Z,99922.50
2022-08-20T14:03:01.339Z,99925.44
2022-08-20T14:06:04.327Z,99938.69
2022-08-20T14:09:06.846Z,99944.97
2022-08-20T14:12:10.923Z,99938.53
2022-08-20T14:15:13.940Z,99950.97
2022-08-20T14:18:17.193Z,99958.91
2022-08-20T14:21:19.718Z,99941.16
2022-08-20T14:24:22.553Z,99922.94
2022-08-20T14:27:30.558Z,99914.75
2022-08-20T14:30:34.186Z,99920.75
2022-08-20T14:33:38.466Z,99911.47
2022-08-20T14:36:42.979Z,99900.13
2022-08-20T14:39:48.413Z,99901.19
2022-08-20T14:42:52.013Z,99897.19
2022-08-20T14:45:54.533Z,99891.91
2022-08-20T14:48:57.385Z,99899.44
2022-08-20T14:51:59.854Z,99899.63
2022-08-20T14:55:04.994Z,99902.84
2022-08-20T14:58:09.299Z,99909.00
2022-08-20T15:01:12.167Z,99913.69
2022-08-20T15:04:14.785Z,99918.63
2022-08-20T15:07:39.808Z,99934.38
2022-08-20T15:10:43.074Z,99939.19
2022-08-20T15:13:45.901Z,99942.00
2022-08-20T15:16:48.581Z,99937.66
2022-08-20T15:19:52.233Z,99935.03
2022-08-20T15:22:55.334Z,99935.00
2022-08-20T15:25:58.158Z,99936.00
2022-08-20T15:29:00.673Z,99938.00
2022-08-20T15:32:03.865Z,99932.03
2022-08-20T15:35:09.891Z,99930.66
2022-08-20T15:38:12.989Z,99930.47
2022-08-20T15:41:15.743Z,99931.91
2022-08-20T15:44:18.514Z,99926.75
2022-08-20T15:47:21.047Z,99919.25
2022-08-20T15:50:44.886Z,99927.19
2022-08-20T15:53:56.554Z,99928.97
2022-08-20T15:57:33.789Z,99937.22
2022-08-20T16:00:42.892Z,99932.44
2022-08-20T16:04:24.368Z,99931.72
2022-08-20T16:07:41.071Z,99937.53
2022-08-20T16:10:51.576Z,99939.87
2022-08-20T16:14:15.382Z,99949.13
2022-08-20T16:17:29.971Z,99947.00
2022-08-20T16:20:47.933Z,99944.34
2022-08-20T16:23:50.942Z,99947.56
2022-08-20T16:27:15.131Z,99939.78
2022-08-20T16:30:33.691Z,99942.75
2022-08-20T16:33:45.255Z,99936.25
2022-08-20T16:37:25.309Z,99938.53
2022-08-20T16:40:51.120Z,99944.72
2022-08-20T16:44:04.074Z,99949.50
2022-08-20T16:47:31.471Z,99949.66
2022-08-20T16:50:45.080Z,99947.63
2022-08-20T16:53:47.540Z,99957.03
2022-08-20T16:56:58.139Z,99959.38
2022-08-20T17:00:16.162Z,99959.53
2022-08-20T17:03:33.534Z,99960.34
2022-08-20T17:06:49.285Z,99953.69
2022-08-20T17:10:08.969Z,99959.62
2022-08-20T17:13:15.401Z,99953.94
2022-08-20T17:16:20.992Z,99949.66
2022-08-20T17:19:29.784Z,99943.28
2022-08-20T17:22:41.457Z,99956.06
2022-08-20T17:25:54.532Z,99946.66
2022-08-20T17:29:01.384Z,99954.34
2022-08-20T17:32:21.084Z,99948.94
2022-08-20T17:35:29.099Z,99951.06
2022-08-20T17:38:39.069Z,99942.06
2022-08-20T17:41:48.975Z,99946.97
2022-08-20T17:44:55.562Z,99946.19
2022-08-20T17:48:00.698Z,99939.00
2022-08-20T17:51:15.860Z,99944.34
2022-08-20T17:54:27.929Z,99936.31
2022-08-20T17:57:36.927Z,99933.28
2022-08-20T18:00:40.630Z,99929.66
2022-08-20T18:03:43.566Z,99938.63
2022-08-20T18:07:08.212Z,99944.66
2022-08-20T18:10:20.450Z,99954.19
2022-08-20T18:13:53.724Z,99945.44
2022-08-20T18:17:42.913Z,99945.75
2022-08-20T18:21:19.589Z,99947.41
2022-08-20T18:24:30.022Z,99935.78
2022-08-20T18:27:42.528Z,99926.88
2022-08-20T18:30:58.219Z,99920.25
2022-08-20T18:34:17.679Z,99910.25
2022-08-20T18:37:25.412Z,99909.50
2022-08-20T18:40:31.093Z,99918.56
2022-08-20T18:43:36.583Z,99920.47
2022-08-20T18:46:55.421Z,99920.59
2022-08-20T18:50:24.676Z,99929.81
2022-08-20T18:53:34.183Z,99943.59
2022-08-20T18:56:42.362Z,99938.31
2022-08-20T18:59:50.370Z,99938.16
2022-08-20T19:03:03.245Z,99944.44
2022-08-20T19:06:08.792Z,99933.75
2022-08-20T19:09:44.119Z,99941.44
2022-08-20T19:13:16.103Z,99942.69
2022-08-20T19:16:34.521Z,99942.06
2022-08-20T19:19:37.898Z,99942.78
2022-08-20T19:22:43.846Z,99931.94
2022-08-20T19:25:55.136Z,99931.13
2022-08-20T19:29:01.784Z,99919.47
2022-08-20T19:32:07.595Z,99907.09
2022-08-20T19:35:17.935Z,99907.22
2022-08-20T19:38:21.444Z,99894.63
2022-08-20T19:41:34.102Z,99900.03
2022-08-20T19:44:59.634Z,99912.81
2022-08-20T19:48:27.258Z,99916.97
2022-08-20T19:51:48.147Z,99914.50
2022-08-20T19:54:53.790Z,99910.03
2022-08-20T19:58:00.324Z,99909.34
2022-08-20T20:01:09.350Z,99901.31
2022-08-20T20:04:17.993Z,99903.63
2022-08-20T20:07:39.533Z,99896.59
2022-08-20T20:10:43.038Z,99904.25
2022-08-20T20:13:45.731Z,99915.19
2022-08-20T20:16:52.432Z,99902.84
2022-08-20T20:20:02.276Z,99892.31
2022-08-20T20:23:20.335Z,99889.53
2022-08-20T20:26:24.103Z,99887.88
2022-08-20T20:29:36.571Z,99890.09
2022-08-20T20:32:49.991Z,99886.91
2022-08-20T20:36:39.050Z,99888.69
2022-08-20T20:39:45.134Z,99889.28
2022-08-20T20:43:00.207Z,99876.47
2022-08-20T20:46:23.771Z,99889.56
2022-08-20T20:49:37.353Z,99886.50
2022-08-20T20:52:54.620Z,99885.22
2022-08-20T20:56:00.145Z,99871.37
2022-08-20T20:59:06.858Z,99865.25
2022-08-20T21:02:10.098Z,99866.38
2022-08-20T21:05:15.468Z,99861.53
2022-08-20T21:08:19.422Z,99869.97
2022-08-20T21:11:22.165Z,99878.63
2022-08-20T21:14:25.012Z,99877.78
2022-08-20T21:17:27.528Z,99881.66
2022-08-20T21:20:30.875Z,99874.00
2022-08-20T21:23:40.238Z,99873.06
2022-08-20T21:26:45.450Z,99875.28
2022-08-20T21:29:48.169Z,99886.66
2022-08-20T21:32:51.323Z,99879.59
2022-08-20T21:35:54.666Z,99880.16
2022-08-20T21:38:57.932Z,99874.06
2022-08-20T21:42:03.704Z,99876.84
2022-08-20T21:45:09.079Z,99872.25
2022-08-20T21:48:11.674Z,99872.37
2022-08-20T21:51:14.485Z,99877.38
2022-08-20T21:54:18.518Z,99874.47
2022-08-20T21:57:25.599Z,99889.31
2022-08-20T22:00:46.698Z,99882.53
2022-08-20T22:03:51.879Z,99875.59
2022-08-20T22:06:54.753Z,99883.22
2022-08-20T22:09:57.628Z,99879.34
2022-08-20T22:13:00.244Z,99883.34
2022-08-20T22:16:06.295Z,99887.66
2022-08-20T22:19:10.717Z,99891.81
2022-08-20T22:22:18.321Z,99894.03
2022-08-20T22:25:20.934Z,99898.34
2022-08-20T22:28:24.051Z,99902.22
2022-08-20T22:31:29.955Z,99891.69
2022-08-20T22:34:35.144Z,99884.03
2022-08-20T22:37:37.728Z,99873.25
2022-08-20T22:40:41.174Z,99882.00
2022-08-20T22:43:56.053Z,99880.31
2022-08-20T22:47:05.755Z,99873.81
2022-08-20T22:50:10.184Z,99868.25
2022-08-20T22:53:14.617Z,99872.81
2022-08-20T22:56:19.665Z,99863.53
2022-08-20T22:59:24.712Z,99860.62
2022-08-20T23:02:27.866Z,99867.69
2022-08-20T23:05:33.059Z,99862.69
2022-08-20T23:08:36.252Z,99856.47
2022-08-20T23:11:39.059Z,99854.94
2022-08-20T23:14:41.782Z,99848.28
2022-08-20T23:17:45.310Z,99849.53
2022-08-20T23:20:54.183Z,99842.06
2022-08-20T23:23:57.037Z,99835.00
2022-08-20T23:26:59.694Z,99833.16
2022-08-20T23:30:02.499Z,99835.97
2022-08-20T23:33:05.501Z,99836.62
2022-08-20T23:36:10.623Z,99834.41
2022-08-20T23:39:13.741Z,99832.47
2022-08-20T23:42:16.858Z,99836.91
2022-08-20T23:45:19.769Z,99831.22
2022-08-20T23:48:23.148Z,99822.47
2022-08-20T23:51:25.736Z,99829.69
2022-08-20T23:54:30.977Z,99813.59
2022-08-20T23:57:33.984Z,99827.75
